createdAt,value
2018-08-22T00:01:55.464Z,16.03
2018-08-22T00:04:59.872Z,16.06
2018-08-22T00:08:04.164Z,16.03
2018-08-22T00:11:08.455Z,16.01
2018-08-22T00:14:12.741Z,15.99
2018-08-22T00:17:17.056Z,15.97
2018-08-22T00:20:21.319Z,15.94
2018-08-22T00:23:25.571Z,15.92
2018-08-22T00:26:29.849Z,15.91
2018-08-22T00:29:34.238Z,15.89
2018-08-22T00:32:38.478Z,15.88
2018-08-22T00:35:42.638Z,15.84
2018-08-22T00:38:46.921Z,15.83
2018-08-22T00:41:51.151Z,15.79
2018-08-22T00:44:55.451Z,15.76
2018-08-22T00:47:59.715Z,15.77
2018-08-22T00:51:03.983Z,15.76
2018-08-22T00:54:08.319Z,15.81
2018-08-22T00:57:12.562Z,15.80
2018-08-22T01:00:16.862Z,15.81
2018-08-22T01:03:21.158Z,15.83
2018-08-22T01:06:25.755Z,15.83
2018-08-22T01:09:29.826Z,15.82
2018-08-22T01:12:34.087Z,15.81
2018-08-22T01:15:38.361Z,15.86
2018-08-22T01:18:42.676Z,15.86
2018-08-22T01:21:46.998Z,15.90
2018-08-22T01:24:51.325Z,15.86
2018-08-22T01:27:55.561Z,15.87
2018-08-22T01:30:59.847Z,15.83
2018-08-22T01:34:04.106Z,15.83
2018-08-22T01:37:08.326Z,15.90
2018-08-22T01:40:12.534Z,15.90
2018-08-22T01:43:16.910Z,15.92
2018-08-22T01:46:21.246Z,15.88
2018-08-22T01:49:25.481Z,15.87
2018-08-22T01:52:29.727Z,15.89
2018-08-22T01:55:33.978Z,15.85
2018-08-22T01:58:38.143Z,15.84
2018-08-22T02:01:42.451Z,15.84
2018-08-22T02:04:46.705Z,15.81
2018-08-22T02:07:51.067Z,15.82
2018-08-22T02:10:55.412Z,15.81
2018-08-22T02:13:59.699Z,15.86
2018-08-22T02:17:03.975Z,15.93
2018-08-22T02:20:08.283Z,15.94
2018-08-22T02:23:12.563Z,15.96
2018-08-22T02:26:16.879Z,15.99
2018-08-22T02:29:21.206Z,16.00
2018-08-22T02:32:25.524Z,16.05
2018-08-22T02:35:29.843Z,16.03
2018-08-22T02:38:34.301Z,16.00
2018-08-22T02:41:38.621Z,15.93
2018-08-22T02:44:42.900Z,15.88
2018-08-22T02:47:47.137Z,15.84
2018-08-22T02:50:51.242Z,15.77
2018-08-22T02:53:55.567Z,15.74
2018-08-22T02:56:59.871Z,15.69
2018-08-22T03:00:04.216Z,15.67
2018-08-22T03:03:08.479Z,15.64
2018-08-22T03:06:12.847Z,15.62
2018-08-22T03:09:17.143Z,15.60
2018-08-22T03:12:21.476Z,15.58
2018-08-22T03:15:25.796Z,15.55
2018-08-22T03:18:30.112Z,15.61
2018-08-22T03:21:34.600Z,15.66
2018-08-22T03:24:38.859Z,15.69
2018-08-22T03:27:43.180Z,15.74
2018-08-22T03:30:47.807Z,15.70
2018-08-22T03:33:52.167Z,15.69
2018-08-22T03:36:56.463Z,15.68
2018-08-22T03:40:00.767Z,15.66
2018-08-22T03:43:05.103Z,15.64
2018-08-22T03:46:09.422Z,15.63
2018-08-22T03:49:13.749Z,15.61
2018-08-22T03:52:18.067Z,15.58
2018-08-22T03:55:22.386Z,15.55
2018-08-22T03:58:26.701Z,15.54
2018-08-22T04:01:31.060Z,15.51
2018-08-22T04:04:35.314Z,15.48
2018-08-22T04:07:39.329Z,15.50
2018-08-22T04:10:43.781Z,15.47
2018-08-22T04:13:48.138Z,15.48
2018-08-22T04:16:52.423Z,15.47
2018-08-22T04:19:56.687Z,15.42
2018-08-22T04:23:01.884Z,15.44
2018-08-22T04:26:06.184Z,15.36
2018-08-22T04:29:10.440Z,15.35
2018-08-22T04:32:14.694Z,15.33
2018-08-22T04:35:19.075Z,15.28
2018-08-22T04:38:23.412Z,15.25
2018-08-22T04:41:27.698Z,15.26
2018-08-22T04:44:31.979Z,15.25
2018-08-22T04:47:36.261Z,15.25
2018-08-22T04:50:40.580Z,15.28
2018-08-22T04:53:44.888Z,15.28
2018-08-22T04:56:49.268Z,15.30
2018-08-22T04:59:53.352Z,15.29
2018-08-22T05:02:57.621Z,15.31
2018-08-22T05:06:01.866Z,15.35
2018-08-22T05:09:08.408Z,15.37
2018-08-22T05:12:12.776Z,15.40
2018-08-22T05:15:16.929Z,15.48
2018-08-22T05:18:21.724Z,15.49
2018-08-22T05:21:26.006Z,15.53
2018-08-22T05:24:30.322Z,15.60
2018-08-22T05:27:34.668Z,15.65
2018-08-22T05:30:39.093Z,15.69
2018-08-22T05:33:43.472Z,15.73
2018-08-22T05:36:47.714Z,15.80
2018-08-22T05:39:51.944Z,15.85
2018-08-22T05:42:56.278Z,15.95
2018-08-22T05:46:00.608Z,16.02
2018-08-22T05:49:04.984Z,16.13
2018-08-22T05:52:09.224Z,16.25
2018-08-22T05:55:13.542Z,16.33
2018-08-22T05:58:17.864Z,16.46
2018-08-22T06:01:22.206Z,16.55
2018-08-22T06:04:26.476Z,16.64
2018-08-22T06:07:30.849Z,16.73
2018-08-22T06:10:35.150Z,16.85
2018-08-22T06:13:39.300Z,16.97
2018-08-22T06:16:43.589Z,17.11
2018-08-22T06:19:49.186Z,17.23
2018-08-22T06:22:53.564Z,17.31
2018-08-22T06:25:57.883Z,17.43
2018-08-22T06:29:02.207Z,17.55
2018-08-22T06:32:06.509Z,17.65
2018-08-22T06:35:10.833Z,17.74
2018-08-22T06:38:15.169Z,17.84
2018-08-22T06:41:19.497Z,18.00
2018-08-22T06:44:23.849Z,18.13
2018-08-22T06:47:28.039Z,18.27
2018-08-22T06:50:32.343Z,18.35
2018-08-22T06:53:36.679Z,18.48
2018-08-22T06:56:40.767Z,18.65
2018-08-22T06:59:45.007Z,18.81
2018-08-22T07:02:49.367Z,18.94
2018-08-22T07:05:53.713Z,19.11
2018-08-22T07:08:58.165Z,19.25
2018-08-22T07:12:02.436Z,19.41
2018-08-22T07:15:07.697Z,19.59
2018-08-22T07:18:12.032Z,19.69
2018-08-22T07:21:16.404Z,19.85
2018-08-22T07:24:20.770Z,19.91
2018-08-22T07:27:25.177Z,20.07
2018-08-22T07:30:29.497Z,20.20
2018-08-22T07:33:33.824Z,20.33
2018-08-22T07:36:38.246Z,20.36
2018-08-22T07:39:42.531Z,20.56
2018-08-22T07:42:46.883Z,20.66
2018-08-22T07:45:51.780Z,20.76
2018-08-22T07:48:56.124Z,20.82
2018-08-22T07:52:00.550Z,20.94
2018-08-22T07:55:04.872Z,21.09
2018-08-22T07:58:09.188Z,21.16
2018-08-22T08:01:13.491Z,21.33
2018-08-22T08:04:17.829Z,21.40
2018-08-22T08:07:22.162Z,21.46
2018-08-22T08:10:31.521Z,21.53
2018-08-22T08:13:35.814Z,21.54
2018-08-22T08:16:40.290Z,21.66
2018-08-22T08:19:44.578Z,21.75
2018-08-22T08:22:48.861Z,21.85
2018-08-22T08:25:53.203Z,22.05
2018-08-22T08:28:57.617Z,22.22
2018-08-22T08:32:01.928Z,22.32
2018-08-22T08:35:06.228Z,22.38
2018-08-22T08:38:11.707Z,22.43
2018-08-22T08:41:16.017Z,22.53
2018-08-22T08:44:20.332Z,22.57
2018-08-22T08:47:25.121Z,22.58
2018-08-22T08:50:29.503Z,22.55
2018-08-22T08:53:33.924Z,22.68
2018-08-22T08:56:38.168Z,22.86
2018-08-22T08:59:42.532Z,22.95
2018-08-22T09:02:46.884Z,23.11
2018-08-22T09:05:51.170Z,23.12
2018-08-22T09:08:55.528Z,23.15
2018-08-22T09:12:00.997Z,23.23
2018-08-22T09:15:06.358Z,23.34
2018-08-22T09:18:10.960Z,23.50
2018-08-22T09:21:15.261Z,23.71
2018-08-22T09:24:19.535Z,23.81
2018-08-22T09:27:23.854Z,23.95
2018-08-22T09:30:28.190Z,24.11
2018-08-22T09:33:32.516Z,24.12
2018-08-22T09:36:36.838Z,24.05
2018-08-22T09:39:41.192Z,24.26
2018-08-22T09:42:45.485Z,24.33
2018-08-22T09:45:49.826Z,24.47
2018-08-22T09:48:54.192Z,24.53
2018-08-22T09:51:58.500Z,24.60
2018-08-22T09:55:04.236Z,24.71
2018-08-22T09:58:08.610Z,24.78
2018-08-22T10:01:18.061Z,24.94
2018-08-22T10:04:22.329Z,25.08
2018-08-22T10:07:26.742Z,25.11
2018-08-22T10:10:30.985Z,25.24
2018-08-22T10:13:35.326Z,25.32
2018-08-22T10:16:39.686Z,25.31
2018-08-22T10:19:44.161Z,25.36
2018-08-22T10:22:48.414Z,25.42
2018-08-22T10:25:52.717Z,25.45
2018-08-22T10:28:57.122Z,25.52
2018-08-22T10:32:01.563Z,25.65
2018-08-22T10:35:06.583Z,25.80
2018-08-22T10:38:10.872Z,25.97
2018-08-22T10:41:15.155Z,25.97
2018-08-22T10:44:19.544Z,25.91
2018-08-22T10:47:23.952Z,25.93
2018-08-22T10:50:28.354Z,26.01
2018-08-22T10:53:32.695Z,26.02
2018-08-22T10:56:37.015Z,26.16
2018-08-22T10:59:41.444Z,26.36
2018-08-22T11:02:45.864Z,26.49
2018-08-22T11:05:50.198Z,26.53
2018-08-22T11:08:54.502Z,26.49
2018-08-22T11:11:58.803Z,26.50
2018-08-22T11:15:03.156Z,26.63
2018-08-22T11:18:07.470Z,26.62
2018-08-22T11:21:28.789Z,26.52
2018-08-22T11:24:50.182Z,26.49
2018-08-22T11:28:11.531Z,26.61
2018-08-22T11:31:32.972Z,26.56
2018-08-22T11:34:48.197Z,26.66
2018-08-22T11:37:52.552Z,26.79
2018-08-22T11:40:56.821Z,26.92
2018-08-22T11:44:01.194Z,27.04
2018-08-22T11:47:05.623Z,26.87
2018-08-22T11:50:09.893Z,27.04
2018-08-22T11:53:14.372Z,26.88
2018-08-22T11:56:18.761Z,26.98
2018-08-22T11:59:23.082Z,27.13
2018-08-22T12:02:27.357Z,27.03
2018-08-22T12:05:31.701Z,27.13
2018-08-22T12:08:36.013Z,27.20
2018-08-22T12:11:40.744Z,27.11
2018-08-22T12:14:45.070Z,27.19
2018-08-22T12:17:49.405Z,27.39
2018-08-22T12:20:53.815Z,27.42
2018-08-22T12:23:58.165Z,27.60
2018-08-22T12:27:02.518Z,27.53
2018-08-22T12:30:06.795Z,27.77
2018-08-22T12:33:11.189Z,27.88
2018-08-22T12:36:32.120Z,28.02
2018-08-22T12:39:36.421Z,27.90
2018-08-22T12:42:40.728Z,27.87
2018-08-22T12:45:45.048Z,27.88
2018-08-22T12:48:49.397Z,27.77
2018-08-22T12:51:53.679Z,27.68
2018-08-22T12:54:58.006Z,27.72
2018-08-22T12:58:02.335Z,27.61
2018-08-22T13:01:07.071Z,27.60
2018-08-22T13:04:11.756Z,27.77
2018-08-22T13:07:16.029Z,27.63
2018-08-22T13:10:21.190Z,27.51
2018-08-22T13:13:25.432Z,27.57
2018-08-22T13:16:29.759Z,27.68
2018-08-22T13:19:34.101Z,27.65
2018-08-22T13:22:38.390Z,27.56
2018-08-22T13:25:42.718Z,27.63
2018-08-22T13:28:47.248Z,27.58
2018-08-22T13:31:51.595Z,27.84
2018-08-22T13:34:55.892Z,27.99
2018-08-22T13:38:00.204Z,27.94
2018-08-22T13:41:04.535Z,27.87
2018-08-22T13:44:09.015Z,27.67
2018-08-22T13:47:13.501Z,27.88
2018-08-22T13:50:17.810Z,27.88
2018-08-22T13:53:22.147Z,27.65
2018-08-22T13:56:26.466Z,27.61
2018-08-22T13:59:30.770Z,27.77
2018-08-22T14:02:35.100Z,27.81
2018-08-22T14:05:39.564Z,27.81
2018-08-22T14:08:43.843Z,28.07
2018-08-22T14:11:48.144Z,28.09
2018-08-22T14:14:52.490Z,28.16
2018-08-22T14:17:56.789Z,28.39
2018-08-22T14:21:01.107Z,28.09
2018-08-22T14:24:05.415Z,28.20
2018-08-22T14:27:09.768Z,28.18
2018-08-22T14:30:14.187Z,27.96
2018-08-22T14:33:18.733Z,27.78
2018-08-22T14:36:23.041Z,27.87
2018-08-22T14:39:27.505Z,28.09
2018-08-22T14:42:31.680Z,28.01
2018-08-22T14:45:36.003Z,27.77
2018-08-22T14:48:40.285Z,27.65
2018-08-22T14:51:44.584Z,27.59
2018-08-22T14:54:48.940Z,27.62
2018-08-22T14:57:53.203Z,27.78
2018-08-22T15:00:57.569Z,27.83
2018-08-22T15:04:01.873Z,28.01
2018-08-22T15:07:06.392Z,27.83
2018-08-22T15:10:14.534Z,27.71
2018-08-22T15:13:18.824Z,27.74
2018-08-22T15:16:23.132Z,27.79
2018-08-22T15:19:27.464Z,27.88
2018-08-22T15:22:32.069Z,28.04
2018-08-22T15:25:36.687Z,28.33
2018-08-22T15:28:40.952Z,28.72
2018-08-22T15:31:45.254Z,29.15
2018-08-22T15:34:54.839Z,29.58
2018-08-22T15:37:59.219Z,29.76
2018-08-22T15:41:03.611Z,29.93
2018-08-22T15:44:07.874Z,29.78
2018-08-22T15:47:12.768Z,30.07
2018-08-22T15:50:17.038Z,30.28
2018-08-22T15:53:21.363Z,30.26
2018-08-22T15:56:25.748Z,29.85
2018-08-22T15:59:30.071Z,29.41
2018-08-22T16:02:35.041Z,29.46
2018-08-22T16:05:40.492Z,29.50
2018-08-22T16:08:44.918Z,29.35
2018-08-22T16:11:49.189Z,29.25
2018-08-22T16:14:53.433Z,28.86
2018-08-22T16:17:58.097Z,28.70
2018-08-22T16:21:03.119Z,28.28
2018-08-22T16:24:07.673Z,27.90
2018-08-22T16:27:12.003Z,27.72
2018-08-22T16:30:16.292Z,27.45
2018-08-22T16:33:20.601Z,27.08
2018-08-22T16:36:28.987Z,26.97
2018-08-22T16:39:41.728Z,26.83
2018-08-22T16:42:46.180Z,26.59
2018-08-22T16:45:55.380Z,26.71
2018-08-22T16:48:59.751Z,26.95
2018-08-22T16:52:04.207Z,27.18
2018-08-22T16:55:20.434Z,27.29
2018-08-22T16:58:24.829Z,27.38
2018-08-22T17:01:29.589Z,27.46
2018-08-22T17:04:33.946Z,27.35
2018-08-22T17:07:38.311Z,27.14
2018-08-22T17:10:59.260Z,26.83
2018-08-22T17:14:03.613Z,26.69
2018-08-22T17:17:07.880Z,26.66
2018-08-22T17:20:12.237Z,26.67
2018-08-22T17:23:16.564Z,26.58
2018-08-22T17:26:22.991Z,26.34
2018-08-22T17:29:27.341Z,26.00
2018-08-22T17:32:31.636Z,25.74
2018-08-22T17:35:41.162Z,25.52
2018-08-22T17:38:48.253Z,25.28
2018-08-22T17:41:52.678Z,25.08
2018-08-22T17:44:57.002Z,24.96
2018-08-22T17:48:02.456Z,24.77
2018-08-22T17:51:07.022Z,24.60
2018-08-22T17:54:11.413Z,24.49
2018-08-22T17:57:23.425Z,24.35
2018-08-22T18:00:30.123Z,24.19
2018-08-22T18:03:34.532Z,24.05
2018-08-22T18:06:38.846Z,23.92
2018-08-22T18:09:43.148Z,23.77
2018-08-22T18:12:47.448Z,23.61
2018-08-22T18:15:51.766Z,23.47
2018-08-22T18:18:56.158Z,23.35
2018-08-22T18:22:00.423Z,23.21
2018-08-22T18:25:04.977Z,23.08
2018-08-22T18:28:09.269Z,22.96
2018-08-22T18:31:13.580Z,22.85
2018-08-22T18:34:17.935Z,22.72
2018-08-22T18:37:22.223Z,22.60
2018-08-22T18:40:30.604Z,22.46
2018-08-22T18:43:34.988Z,22.35
2018-08-22T18:46:39.408Z,22.24
2018-08-22T18:49:43.860Z,22.15
2018-08-22T18:52:50.634Z,22.07
2018-08-22T18:56:13.891Z,21.98
2018-08-22T18:59:26.706Z,21.84
2018-08-22T19:02:31.278Z,21.74
2018-08-22T19:05:36.822Z,21.67
2018-08-22T19:08:41.289Z,21.59
2018-08-22T19:11:46.535Z,21.49
2018-08-22T19:14:50.961Z,21.42
2018-08-22T19:17:55.372Z,21.35
2018-08-22T19:21:01.289Z,21.27
2018-08-22T19:24:06.723Z,21.21
2018-08-22T19:27:11.076Z,21.16
2018-08-22T19:30:15.115Z,21.13
2018-08-22T19:33:21.443Z,21.09
2018-08-22T19:36:26.605Z,21.04
2018-08-22T19:39:30.756Z,21.01
2018-08-22T19:42:37.182Z,20.95
2018-08-22T19:45:41.482Z,20.90
2018-08-22T19:48:45.826Z,20.84
2018-08-22T19:51:51.670Z,20.78
2018-08-22T19:54:57.646Z,20.74
2018-08-22T19:58:03.609Z,20.68
2018-08-22T20:01:09.173Z,20.62
2018-08-22T20:04:14.470Z,20.56
2018-08-22T20:07:20.861Z,20.48
2018-08-22T20:10:25.265Z,20.42
2018-08-22T20:13:54.165Z,20.39
2018-08-22T20:16:58.483Z,20.33
2018-08-22T20:20:02.633Z,20.28
2018-08-22T20:23:07.078Z,20.21
2018-08-22T20:26:11.430Z,20.15
2018-08-22T20:29:15.760Z,20.14
2018-08-22T20:32:24.737Z,20.12
2018-08-22T20:35:33.343Z,20.05
2018-08-22T20:38:37.715Z,20.01
2018-08-22T20:41:42.861Z,19.94
2018-08-22T20:44:47.701Z,19.90
2018-08-22T20:47:59.190Z,19.89
2018-08-22T20:51:03.500Z,19.93
2018-08-22T20:54:11.904Z,19.97
2018-08-22T20:57:16.203Z,20.01
2018-08-22T21:00:23.893Z,20.01
2018-08-22T21:03:28.254Z,20.04
2018-08-22T21:06:32.553Z,19.99
2018-08-22T21:09:36.933Z,19.96
2018-08-22T21:12:41.049Z,19.98
2018-08-22T21:15:45.455Z,20.03
2018-08-22T21:18:49.873Z,20.05
2018-08-22T21:21:54.301Z,20.02
2018-08-22T21:25:00.162Z,20.00
2018-08-22T21:28:04.441Z,19.98
2018-08-22T21:31:08.788Z,19.97
2018-08-22T21:34:18.353Z,19.89
2018-08-22T21:37:26.076Z,19.78
2018-08-22T21:40:30.599Z,19.71
2018-08-22T21:43:34.987Z,19.66
2018-08-22T21:46:39.282Z,19.62
2018-08-22T21:49:43.647Z,19.57
2018-08-22T21:52:59.327Z,19.48
2018-08-22T21:56:03.663Z,19.37
2018-08-22T21:59:08.485Z,19.30
2018-08-22T22:02:13.112Z,19.22
2018-08-22T22:05:21.587Z,19.18
2018-08-22T22:08:26.032Z,19.14
2018-08-22T22:11:30.284Z,19.10
2018-08-22T22:14:35.805Z,19.03
2018-08-22T22:17:40.205Z,18.97
2018-08-22T22:20:49.168Z,18.91
2018-08-22T22:23:53.401Z,18.84
2018-08-22T22:26:57.885Z,18.78
2018-08-22T22:30:05.013Z,18.73
2018-08-22T22:33:09.277Z,18.68
2018-08-22T22:36:13.675Z,18.65
2018-08-22T22:39:38.004Z,18.68
2018-08-22T22:42:42.258Z,18.72
2018-08-22T22:45:46.600Z,18.73
2018-08-22T22:48:50.897Z,18.72
2018-08-22T22:51:55.217Z,18.69
2018-08-22T22:55:01.727Z,18.68
2018-08-22T22:58:06.141Z,18.69
2018-08-22T23:01:10.405Z,18.67
2018-08-22T23:04:16.227Z,18.64
2018-08-22T23:07:23.283Z,18.63
2018-08-22T23:10:27.594Z,18.59
2018-08-22T23:13:31.726Z,18.59
2018-08-22T23:16:36.864Z,18.58
2018-08-22T23:19:41.188Z,18.55
2018-08-22T23:22:45.432Z,18.49
2018-08-22T23:25:49.877Z,18.46
2018-08-22T23:28:54.034Z,18.51
2018-08-22T23:31:58.315Z,18.54
2018-08-22T23:35:20.840Z,18.61
2018-08-22T23:38:35.813Z,18.66
2018-08-22T23:41:39.943Z,18.69
2018-08-22T23:44:45.259Z,18.68
2018-08-22T23:47:49.593Z,18.68
2018-08-22T23:50:59.540Z,18.69
2018-08-22T23:54:03.939Z,18.68
2018-08-22T23:57:08.258Z,18.65
